createdAt,value
2023-04-29T00:01:30.788Z,26.63
2023-04-29T00:06:32.513Z,26.60
2023-04-29T00:11:35.506Z,28.10
2023-04-29T00:16:37.833Z,26.03
2023-04-29T00:21:39.564Z,27.97
2023-04-29T00:26:42.668Z,27.47
2023-04-29T00:31:44.577Z,28.57
2023-04-29T00:36:46.291Z,30.27
2023-04-29T00:41:49.342Z,30.70
2023-04-29T00:46:51.036Z,31.13
2023-04-29T00:51:52.786Z,31.30
2023-04-29T00:56:55.960Z,31.10
2023-04-29T01:01:59.334Z,33.40
2023-04-29T01:07:04.429Z,35.10
2023-04-29T01:12:13.688Z,34.97
2023-04-29T01:17:18.335Z,35.50
2023-04-29T01:22:21.858Z,35.97
2023-04-29T01:27:29.697Z,35.60
2023-04-29T01:32:44.032Z,35.47
2023-04-29T01:37:52.221Z,37.10
2023-04-29T01:43:00.611Z,36.70
2023-04-29T01:48:03.010Z,31.90
2023-04-29T01:53:07.022Z,30.77
2023-04-29T01:58:10.803Z,32.27
2023-04-29T02:03:28.923Z,32.77
2023-04-29T02:08:32.295Z,33.10
2023-04-29T02:13:37.614Z,32.60
2023-04-29T02:18:40.606Z,34.03
2023-04-29T02:23:42.356Z,31.93
2023-04-29T02:28:45.447Z,34.80
2023-04-29T02:33:47.212Z,32.10
2023-04-29T02:38:50.716Z,32.90
2023-04-29T02:43:53.774Z,31.83
2023-04-29T02:48:55.565Z,33.20
2023-04-29T02:54:16.576Z,30.63
2023-04-29T02:59:19.678Z,30.73
2023-04-29T03:04:21.543Z,27.37
2023-04-29T03:09:23.602Z,26.13
2023-04-29T03:14:26.821Z,25.87
2023-04-29T03:19:28.559Z,27.83
2023-04-29T03:24:30.377Z,28.97
2023-04-29T03:29:33.533Z,24.20
2023-04-29T03:34:35.457Z,23.97
2023-04-29T03:39:50.065Z,25.57
2023-04-29T03:44:53.141Z,24.97
2023-04-29T03:49:55.166Z,24.40
2023-04-29T03:54:57.147Z,25.40
2023-04-29T04:00:00.404Z,26.53
2023-04-29T04:05:02.505Z,27.63
2023-04-29T04:10:05.167Z,29.23
2023-04-29T04:15:09.718Z,29.00
2023-04-29T04:20:13.199Z,29.20
2023-04-29T04:25:15.055Z,26.40
2023-04-29T04:30:18.521Z,21.07
2023-04-29T04:35:20.624Z,16.47
2023-04-29T04:40:22.893Z,14.07
2023-04-29T04:45:46.018Z,13.80
2023-04-29T04:50:47.926Z,10.87
2023-04-29T04:55:50.967Z,11.13
2023-04-29T05:00:55.319Z,11.60
2023-04-29T05:05:57.426Z,12.30
2023-04-29T05:10:59.793Z,12.93
2023-04-29T05:16:06.490Z,13.77
2023-04-29T05:21:09.542Z,15.30
2023-04-29T05:26:12.063Z,15.03
2023-04-29T05:31:15.356Z,15.00
2023-04-29T05:36:17.293Z,13.47
2023-04-29T05:41:21.683Z,13.47
2023-04-29T05:46:51.627Z,12.93
2023-04-29T05:51:53.926Z,12.70
2023-04-29T05:56:56.315Z,13.27
2023-04-29T06:02:00.932Z,13.40
2023-04-29T06:07:03.314Z,14.40
2023-04-29T06:12:23.489Z,14.93
2023-04-29T06:17:29.226Z,15.80
2023-04-29T06:22:31.174Z,16.73
2023-04-29T06:27:34.194Z,15.93
2023-04-29T06:32:37.830Z,16.40
2023-04-29T06:37:42.141Z,17.60
2023-04-29T06:43:10.610Z,17.40
2023-04-29T06:48:32.316Z,18.47
2023-04-29T06:53:34.130Z,20.97
2023-04-29T06:58:35.995Z,18.50
2023-04-29T07:03:39.418Z,20.40
2023-04-29T07:08:41.172Z,18.40
2023-04-29T07:13:42.973Z,19.20
2023-04-29T07:18:45.950Z,19.00
2023-04-29T07:23:47.982Z,19.40
2023-04-29T07:28:50.055Z,19.80
2023-04-29T07:33:53.114Z,18.63
2023-04-29T07:38:56.420Z,18.67
2023-04-29T07:43:58.108Z,18.37
2023-04-29T07:49:01.261Z,15.97
2023-04-29T07:54:03.022Z,13.77
2023-04-29T07:59:05.102Z,14.20
2023-04-29T08:04:08.504Z,13.00
2023-04-29T08:09:21.189Z,11.40
2023-04-29T08:14:22.888Z,10.87
2023-04-29T08:19:25.987Z,9.77
2023-04-29T08:24:29.601Z,11.73
2023-04-29T08:29:32.764Z,12.10
2023-04-29T08:34:36.367Z,9.60
2023-04-29T08:39:38.025Z,10.00
2023-04-29T08:44:40.773Z,10.57
2023-04-29T08:49:43.823Z,9.43
2023-04-29T08:54:45.536Z,9.20
2023-04-29T08:59:47.241Z,10.87
2023-04-29T09:04:53.920Z,11.50
2023-04-29T09:09:55.973Z,12.40
2023-04-29T09:14:59.540Z,10.67
2023-04-29T09:20:02.982Z,9.70
2023-04-29T09:25:14.030Z,10.07
2023-04-29T09:30:16.766Z,9.83
2023-04-29T09:35:26.407Z,7.93
2023-04-29T09:40:30.630Z,8.17
2023-04-29T09:45:35.704Z,7.20
2023-04-29T09:50:39.257Z,6.80
2023-04-29T09:55:58.791Z,7.50
2023-04-29T10:01:01.554Z,6.87
2023-04-29T10:06:06.114Z,6.80
2023-04-29T10:11:07.821Z,5.50
2023-04-29T10:16:13.778Z,6.47
2023-04-29T10:21:16.868Z,6.63
2023-04-29T10:26:18.732Z,6.87
2023-04-29T10:31:21.669Z,6.90
2023-04-29T10:36:25.856Z,5.70
2023-04-29T10:41:29.888Z,6.00
2023-04-29T10:46:31.617Z,6.80
2023-04-29T10:51:35.353Z,6.50
2023-04-29T10:56:38.347Z,6.83
2023-04-29T11:01:42.250Z,5.77
2023-04-29T11:06:51.969Z,7.40
2023-04-29T11:12:01.567Z,6.50
2023-04-29T11:17:04.448Z,6.33
2023-04-29T11:22:12.705Z,6.47
2023-04-29T11:27:14.417Z,6.93
2023-04-29T11:32:16.171Z,5.90
2023-04-29T11:37:23.380Z,6.43
2023-04-29T11:42:25.063Z,5.60
2023-04-29T11:47:28.150Z,5.87
2023-04-29T11:52:31.270Z,5.70
2023-04-29T11:57:32.979Z,5.47
2023-04-29T12:02:34.871Z,5.67
2023-04-29T12:07:38.714Z,5.10
2023-04-29T12:12:42.314Z,5.10
2023-04-29T12:17:44.193Z,6.30
2023-04-29T12:22:47.281Z,6.60
2023-04-29T12:27:48.978Z,5.50
2023-04-29T12:32:51.838Z,5.30
2023-04-29T12:37:54.855Z,5.27
2023-04-29T12:42:56.553Z,4.30
2023-04-29T12:47:58.423Z,5.23
2023-04-29T12:53:01.926Z,5.60
2023-04-29T12:58:03.804Z,5.30
2023-04-29T13:03:05.761Z,5.87
2023-04-29T13:08:08.989Z,5.37
2023-04-29T13:13:10.678Z,5.50
2023-04-29T13:18:12.557Z,5.63
2023-04-29T13:23:15.689Z,5.93
2023-04-29T13:28:17.594Z,5.43
2023-04-29T13:33:19.655Z,5.43
2023-04-29T13:38:23.070Z,4.97
2023-04-29T13:43:36.783Z,3.70
2023-04-29T13:59:36.261Z,5.40
2023-04-29T14:04:15.410Z,5.13
2023-04-29T14:09:19.967Z,4.77
2023-04-29T14:14:21.711Z,5.33
2023-04-29T14:19:23.383Z,5.80
2023-04-29T14:24:28.719Z,5.27
2023-04-29T14:29:30.531Z,5.30
2023-04-29T14:34:32.212Z,5.50
2023-04-29T14:39:35.331Z,5.80
2023-04-29T14:44:37.030Z,5.90
2023-04-29T14:49:38.811Z,6.10
2023-04-29T14:54:41.853Z,5.70
2023-04-29T14:59:44.415Z,5.87
2023-04-29T15:04:46.365Z,5.53
2023-04-29T15:09:50.553Z,5.83
2023-04-29T15:14:53.470Z,5.53
2023-04-29T15:19:55.355Z,5.67
2023-04-29T15:24:58.436Z,5.33
2023-04-29T15:30:00.167Z,4.57
2023-04-29T15:35:02.248Z,4.47
2023-04-29T15:40:06.732Z,4.90
2023-04-29T15:45:09.547Z,5.10
2023-04-29T15:50:11.422Z,4.90
2023-04-29T15:55:16.618Z,5.20
2023-04-29T16:00:19.056Z,5.30
2023-04-29T16:05:20.986Z,4.60
2023-04-29T16:10:24.373Z,4.73
2023-04-29T16:15:26.072Z,5.10
2023-04-29T16:20:27.847Z,4.20
2023-04-29T16:25:30.937Z,4.23
2023-04-29T16:30:32.644Z,4.63
2023-04-29T16:35:34.470Z,3.90
2023-04-29T16:40:37.493Z,3.60
2023-04-29T16:45:39.166Z,3.00
2023-04-29T16:50:40.884Z,3.20
2023-04-29T16:55:43.890Z,2.53
2023-04-29T17:00:45.729Z,2.93
2023-04-29T17:05:48.598Z,2.40
2023-04-29T17:10:51.625Z,2.03
2023-04-29T17:15:53.449Z,1.80
2023-04-29T17:20:55.526Z,2.37
2023-04-29T17:25:58.593Z,2.43
2023-04-29T17:31:01.325Z,2.23
2023-04-29T17:36:03.716Z,1.97
2023-04-29T17:41:06.827Z,1.60
2023-04-29T17:46:08.529Z,1.93
2023-04-29T17:51:10.248Z,1.97
2023-04-29T17:56:13.484Z,1.90
2023-04-29T18:01:15.300Z,1.90
2023-04-29T18:06:17.462Z,2.07
2023-04-29T18:11:21.040Z,2.07
2023-04-29T18:16:22.852Z,2.27
2023-04-29T18:21:24.696Z,1.77
2023-04-29T18:26:28.575Z,2.20
2023-04-29T18:31:30.382Z,2.23
2023-04-29T18:36:32.954Z,3.50
2023-04-29T18:41:36.155Z,3.17
2023-04-29T18:46:37.978Z,3.00
2023-04-29T18:51:40.391Z,2.80
2023-04-29T18:56:44.691Z,3.90
2023-04-29T19:01:46.553Z,4.70
2023-04-29T19:06:48.264Z,4.10
2023-04-29T19:11:51.292Z,3.50
2023-04-29T19:16:54.742Z,3.67
2023-04-29T19:21:56.545Z,3.63
2023-04-29T19:26:59.556Z,3.80
2023-04-29T19:32:01.522Z,3.57
2023-04-29T19:37:03.240Z,3.37
2023-04-29T19:42:06.260Z,3.20
2023-04-29T19:47:07.992Z,3.00
2023-04-29T19:52:09.706Z,7.00
2023-04-29T19:57:12.768Z,3.90
2023-04-29T20:02:14.498Z,3.00
2023-04-29T20:07:16.227Z,3.10
2023-04-29T20:12:19.239Z,4.27
2023-04-29T20:17:21.016Z,3.03
2023-04-29T20:22:22.943Z,2.60
2023-04-29T20:27:26.244Z,3.60
2023-04-29T20:32:28.004Z,2.90
2023-04-29T20:37:29.833Z,3.00
2023-04-29T20:42:32.891Z,3.30
2023-04-29T20:47:35.448Z,3.30
2023-04-29T20:52:37.987Z,2.80
2023-04-29T20:57:41.065Z,2.87
2023-04-29T21:02:42.800Z,3.33
2023-04-29T21:07:44.511Z,3.50
2023-04-29T21:12:47.554Z,3.30
2023-04-29T21:17:49.334Z,3.30
2023-04-29T21:22:51.313Z,2.97
2023-04-29T21:27:54.343Z,3.60
2023-04-29T21:32:56.319Z,2.90
2023-04-29T21:37:58.138Z,3.60
2023-04-29T21:43:01.165Z,3.47
2023-04-29T21:48:05.912Z,3.60
2023-04-29T21:53:07.652Z,3.57
2023-04-29T21:58:11.513Z,3.77
2023-04-29T22:03:13.402Z,3.50
2023-04-29T22:08:15.144Z,3.37
2023-04-29T22:13:18.190Z,2.57
2023-04-29T22:18:19.946Z,2.37
2023-04-29T22:23:22.661Z,1.53
2023-04-29T22:28:25.712Z,1.83
2023-04-29T22:33:27.529Z,1.80
2023-04-29T22:38:29.499Z,1.97
2023-04-29T22:43:32.529Z,2.20
2023-04-29T22:48:34.300Z,1.70
2023-04-29T22:53:35.985Z,2.43
2023-04-29T22:58:39.504Z,2.20
2023-04-29T23:03:41.190Z,2.50
2023-04-29T23:08:44.490Z,1.97
2023-04-29T23:13:47.574Z,1.83
2023-04-29T23:18:49.316Z,1.43
2023-04-29T23:23:51.020Z,1.70
2023-04-29T23:28:54.069Z,1.67
2023-04-29T23:33:55.835Z,1.70
2023-04-29T23:38:57.549Z,1.90
2023-04-29T23:44:02.324Z,1.73
2023-04-29T23:49:04.065Z,1.93
2023-04-29T23:54:05.803Z,2.20
2023-04-29T23:59:08.869Z,2.20
